Tiempo atmosférico en la estación meteorológica de Bustillo del Páramo, León (850 m.)



Fecha
DESCASC
Temp. máxima en grados centígrados (hora)
DESCASC
Temp. mínima en grados centígrados (hora)
DESCASC
Temp. media en grados centígrados
DESCASC
Racha de viento máxima en m/sg (hora)
DESCASC
Velocidad máxima media en intervalos de 10 minutos(hora)
DESCASC
Precipitaciones diarias en mm
DESCASC
Precipitaciones de 00:00 a 06:00 en mm
DESCASC
Precipitaciones de 06:00 a 12:00 en mm
DESCASC
Precipitaciones de 12:00 a 18:00 en mm
DESCASC
Precipitaciones de 18:00 a 24:00 en mm
DESCASC
05-12-2019 11.4 (15:00) -0.9 (04:20) 5.2 9.17 (16:50) 5.56 (16:50) 0 0 0 0 0
04-12-2019 11 (15:20) -3.4 (01:10) 3.8 6.67 (23:59) 4.44 (23:59) 0 0 0 0 0
03-12-2019 7.3 (15:10) -4.3 (-00:0) 1.5 4.72 (16:30) 2.5 (16:30) 0 0 0 0 0
02-12-2019 10.6 (13:30) -1.6 (-00:0) 4.5 9.72 (13:50) 5.56 (14:00) 0 0 0 0 0
01-12-2019 8.3 (16:30) 2 (00:00) 5.2 7.5 (05:30) 5 (13:40) 1.6 0.4 1 0.2 0
30-11-2019 11.5 (10:00) 4 (00:00) 7.8 12.22 (15:10) 7.78 (13:00) 3.2 0.6 2.2 0.4 0
29-11-2019 13.6 (15:10) 4.7 (00:00) 9.2 6.39 (01:10) 4.44 (01:10) 0.2 0 0.2 0 0
28-11-2019 12.7 (13:20) 7.4 (00:00) 10 14.17 (13:00) 8.61 (12:40) 1.4 0 0 1 0.4
27-11-2019 9.9 (15:10) 4 (00:00) 6.9 11.11 (06:40) 6.39 (15:30) 3.8 0.2 0.6 3 0
26-11-2019 14.6 (12:40) 5.7 (00:00) 10.2 18.06 (15:50) 12.22 (15:50) 0.4 0 0 0 0.4
25-11-2019 12.6 (13:30) 5.1 (00:00) 8.9 10.56 (12:30) 6.94 (12:40) 0.2 0 0 0.2 0
24-11-2019 8.6 (15:10) 1.2 (00:00) 4.9 8.61 (02:50) 5.28 (02:50) 0.4 0 0 0 0.4
23-11-2019 9.3 (14:20) 2.7 (00:00) 6 18.06 (05:30) 10.28 (05:50) 0.4 0.4 0 0 0
22-11-2019 12.1 (15:10) 3.8 (00:00) 8 14.44 (23:59) 9.17 (14:00) 7.8 0.8 5 1.4 0.6
21-11-2019 10 (15:20) 1.5 (00:00) 5.8 6.67 (12:00) 4.17 (16:40) 0.2 0 0.2 0 0
20-11-2019 6.6 (17:20) 3.3 (00:00) 4.9 8.61 (15:20) 6.11 (15:20) 5.4 0.6 4.2 0.6 0
19-11-2019 5.8 (15:10) -3.2 (-00:0) 1.3 4.17 (14:50) 2.5 (03:20) 0.6 0 0 0 0.6
18-11-2019 9.9 (14:40) -1.1 (-00:0) 4.4 9.17 (12:30) 6.94 (12:40) 0 0 0 0 0
17-11-2019 9.4 (14:50) 1 (00:00) 5.2 11.94 (14:10) 8.89 (14:10) 0.6 0 0 0.4 0.2
16-11-2019 6.8 (14:00) -1 (-00:0) 2.9 13.06 (16:00) 8.61 (16:00) 1.2 0 0.8 0.4 0
15-11-2019 5.3 (13:40) 0.3 (00:00) 2.8 13.89 (12:20) 8.89 (12:20) 9.4 1.8 7.4 0.2 0
14-11-2019 6.8 (00:20) 0.3 (00:00) 3.6 15.56 (02:30) 10.56 (02:20) 4.2 0 0.2 2.6 1.4
13-11-2019 13.3 (13:00) 5.7 (00:00) 9.5 13.61 (16:30) 9.44 (16:20) 4.8 4.6 0 0.2 0
12-11-2019 9 (15:40) 0.9 (00:00) 4.9 11.11 (07:00) 7.5 (07:00) 8.2 0 0 1.6 6.6
11-11-2019 13.1 (12:10) 0.9 (23:59) 7 15 (12:50) 9.72 (12:50) 0 0 0 0 0
10-11-2019 6 (17:10) 2.6 (00:00) 4.3 11.94 (12:00) 8.33 (12:10) 0.8 0 0 0.4 0.4
09-11-2019 11.7 (15:10) 2.1 (00:00) 6.9 15.83 (20:00) 10.28 (20:00) 0.2 0 0.2 0 0
08-11-2019 9.1 (15:40) 1.3 (00:00) 5.2 15 (12:30) 10.28 (12:30) 0 0 0 0 0
07-11-2019 8.9 (01:30) 1.4 (00:00) 5.1 16.67 (13:40) 10.56 (13:40) 0.2 0.2 0 0 0
06-11-2019 11 (15:40) 3.8 (00:00) 7.4 7.22 (02:00) 4.72 (00:40) 0.2 0 0 0 0.2

Gráficas

Temp. máximas Temp. mínimas Temp. medias Precipitaciones Rachas de viento máximas Velocidades máximas media en intervalos de 10 minutos

Datos horarios

Fecha y hora oficial Temperatura (ºC) Velocidad del viento (km/h) Dirección del viento Racha (km/h) Dirección de racha Precipitación (mm) Presión (hPa) Tendencia (hPa) Humedad (%)
2019-12-05 23:00:00 2.2 7 Norte 10 Norte 0 -- -- 91
2019-12-05 22:00:00 3.3 8 Noroeste 10 Norte 0 -- -- 89
2019-12-05 21:00:00 5.6 2 Norte 6 Noroeste 0 -- -- 86
2019-12-05 20:00:00 6 3 Noroeste 10 Este 0 -- -- 84
2019-12-05 19:00:00 6.5 7 Este 17 Este 0 -- -- 83
2019-12-05 18:00:00 7.9 13 Este 24 Este 0 -- -- 77
2019-12-05 17:00:00 9.5 18 Este 33 Este 0 -- -- 71
2019-12-05 16:00:00 11.2 16 Este 25 Este 0 -- -- 68
2019-12-05 15:00:00 11.4 15 Este 26 Este 0 -- -- 67
2019-12-05 14:00:00 11.1 13 Sudeste 22 Este 0 -- -- 66
2019-12-05 13:00:00 10.7 3 Sudeste 11 Sudeste 0 -- -- 67
2019-12-05 12:00:00 9 6 Este 12 Este 0 -- -- 73
2019-12-05 11:00:00 5.9 9 Sudeste 14 Sudeste 0 -- -- 82
2019-12-05 10:00:00 2.8 5 Norte 9 Norte 0 -- -- 95
2019-12-05 09:00:00 0.7 6 Norte 14 Norte 0 -- -- 91
2019-12-05 08:00:00 0.3 8 Norte 11 Norte 0 -- -- 94
2019-12-05 07:00:00 -0.3 4 Norte 13 Noroeste 0 -- -- 93
2019-12-05 06:00:00 -0.8 5 Noroeste 11 Oeste 0 -- -- 92
2019-12-05 05:00:00 -0.7 7 Oeste 10 Oeste 0 -- -- 92
2019-12-05 04:00:00 -0.5 5 Noroeste 8 Oeste 0 -- -- 88
2019-12-05 03:00:00 -0.1 3 Oeste 9 Nordeste 0 -- -- 85
2019-12-05 02:00:00 1.3 3 Nordeste 18 Sudeste 0 -- -- 84
2019-12-05 01:00:00 2.7 4 Noroeste 23 Noroeste 0 -- -- 77
2019-12-05 00:00:00 3.2 16 Noroeste 24 Noroeste 0 -- -- 79
2019-12-04 23:00:00 1.6 9 Noroeste 11 Noroeste 0 -- -- 87
2019-12-04 22:00:00 2.1 7 Noroeste 11 Noroeste 0 -- -- 84
2019-12-04 21:00:00 2.5 7 Norte 10 Noroeste 0 -- -- 84
2019-12-04 20:00:00 3.4 9 Norte 11 Norte 0 -- -- 82
2019-12-04 19:00:00 4.7 8 Noroeste 9 Noroeste 0 -- -- 77
2019-12-04 18:00:00 7.4 0 Calma 4 Noroeste 0 -- -- 69
2019-12-04 17:00:00 10.2 3 Norte 12 Nordeste 0 -- -- 57
2019-12-04 16:00:00 10.6 6 Norte 13 Noroeste 0 -- -- 51
2019-12-04 15:00:00 10.8 5 Nordeste 15 Nordeste 0 -- -- 53
2019-12-04 14:00:00 10.2 5 Nordeste 15 Nordeste 0 -- -- 54
2019-12-04 13:00:00 9.6 5 Nordeste 12 Norte 0 -- -- 61
2019-12-04 12:00:00 7.9 4 Noroeste 10 Norte 0 -- -- 69
2019-12-04 11:00:00 5.4 5 Norte 10 Norte 0 -- -- 85
2019-12-04 10:00:00 1.4 4 Norte 10 Noroeste 0 -- -- 94
2019-12-04 09:00:00 -1.1 8 Noroeste 10 Noroeste 0 -- -- 95
2019-12-04 08:00:00 -1.7 6 Noroeste 11 Norte 0 -- -- 94
2019-12-04 07:00:00 -1.7 7 Norte 10 Norte 0 -- -- 94
2019-12-04 06:00:00 -1.2 6 Noroeste 8 Noroeste 0 -- -- 94
2019-12-04 05:00:00 -0.7 4 Norte 12 Noroeste 0 -- -- 94
2019-12-04 04:00:00 -1.7 7 Noroeste 12 Noroeste 0 -- -- 95
2019-12-04 03:00:00 -3.3 6 Noroeste 8 Norte 0 -- -- 94
2019-12-04 02:00:00 -3.3 4 Norte 9 Norte 0 -- -- 94
2019-12-04 01:00:00 -3.3 5 Norte 8 Norte 0 -- -- 93
2019-12-04 00:00:00 -3.1 5 Noroeste 7 Norte 0 -- -- 93
2019-12-03 23:00:00 -2.5 8 Norte 9 Norte 0 -- -- 92
2019-12-03 22:00:00 -1.7 5 Noroeste 7 Noroeste 0 -- -- 90
2019-12-03 21:00:00 -0.6 2 Nordeste 5 Norte 0 -- -- 89
2019-12-03 20:00:00 0.6 3 Sudeste 7 Sudeste 0 -- -- 86
2019-12-03 19:00:00 2.2 5 Sudeste 10 Sudeste 0 -- -- 80
2019-12-03 18:00:00 4.2 3 Sudeste 9 Sudeste 0 -- -- 71
2019-12-03 17:00:00 6.5 4 Sudeste 17 Sudeste 0 -- -- 59
2019-12-03 16:00:00 7.3 8 Sudeste 13 Sudeste 0 -- -- 54
2019-12-03 15:00:00 7.1 6 Sudeste 15 Sudeste 0 -- -- 54
2019-12-03 14:00:00 6.7 5 Sudoeste 15 Sur 0 -- -- 58
2019-12-03 13:00:00 5.7 3 Sudeste 12 Sudoeste 0 -- -- 59
2019-12-03 12:00:00 4.2 3 Oeste 6 Oeste 0 -- -- 66
2019-12-03 11:00:00 1.9 3 Noroeste 5 Oeste 0 -- -- 84
2019-12-03 10:00:00 -0.9 3 Norte 8 Noroeste 0 -- -- 92
2019-12-03 09:00:00 -3.8 6 Noroeste 8 Noroeste 0 -- -- 94
2019-12-03 08:00:00 -4.2 6 Noroeste 8 Noroeste 0 -- -- 94
2019-12-03 07:00:00 -4.2 2 Norte 6 Oeste 0 -- -- 93
2019-12-03 06:00:00 -4.1 2 Norte 8 Nordeste 0 -- -- 93
2019-12-03 05:00:00 -3.4 2 Norte 5 Noroeste 0 -- -- 92
2019-12-03 04:00:00 -3.3 4 Noroeste 6 Noroeste 0 -- -- 93
2019-12-03 03:00:00 -3 5 Norte 7 Norte 0 -- -- 92
2019-12-03 02:00:00 -2 5 Oeste 6 Oeste 0 -- -- 92
2019-12-03 01:00:00 -2.4 2 Sur 3 Noroeste 0 -- -- 90
2019-12-03 00:00:00 -1.6 0 Calma 6 Sudoeste 0 -- -- 90
2019-12-02 23:00:00 -1.2 0 Calma 6 Nordeste 0 -- -- 87
2019-12-02 22:00:00 -0.1 5 Este 15 Nordeste 0 -- -- 84
2019-12-02 21:00:00 1.4 5 Norte 12 Norte 0 -- -- 78
2019-12-02 20:00:00 3 6 Norte 12 Norte 0 -- -- 75
2019-12-02 19:00:00 4.1 6 Norte 19 Norte 0 -- -- 73
2019-12-02 18:00:00 6.2 8 Norte 22 Norte 0 -- -- 66
2019-12-02 17:00:00 8.6 16 Norte 30 Norte 0 -- -- 57
2019-12-02 16:00:00 9.7 18 Norte 32 Norte 0 -- -- 53
2019-12-02 15:00:00 10.1 17 Norte 32 Nordeste 0 -- -- 52
2019-12-02 14:00:00 9.7 20 Norte 35 Norte 0 -- -- 54
2019-12-02 13:00:00 10 14 Nordeste 29 Norte 0 -- -- 55
2019-12-02 12:00:00 9.5 15 Nordeste 26 Nordeste 0 -- -- 60
2019-12-02 11:00:00 7.5 3 Este 14 Norte 0 -- -- 75
2019-12-02 10:00:00 3.9 2 Norte 8 Oeste 0 -- -- 89
2019-12-02 09:00:00 0.8 4 Noroeste 11 Noroeste 0 -- -- 91
2019-12-02 08:00:00 1.3 9 Noroeste 14 Norte 0 -- -- 89
2019-12-02 07:00:00 0.9 10 Norte 13 Norte 0 -- -- 89
2019-12-02 06:00:00 0.7 7 Norte 15 Norte 0 -- -- 89
2019-12-02 05:00:00 0 6 Norte 9 Noroeste 0 -- -- 92
2019-12-02 04:00:00 0.3 6 Noroeste 13 Norte 0 -- -- 91
2019-12-02 03:00:00 0.9 8 Norte 14 Norte 0 -- -- 91
2019-12-02 02:00:00 1 10 Norte 14 Norte 0 -- -- 92
2019-12-02 01:00:00 1.3 7 Norte 12 Norte 0 -- -- 89
2019-12-02 00:00:00 2.1 9 Norte 12 Norte 0 -- -- 88
2019-12-01 23:00:00 2.7 8 Norte 14 Noroeste 0 -- -- 88
2019-12-01 22:00:00 4 10 Norte 17 Norte 0 -- -- 85
2019-12-01 21:00:00 5.2 7 Norte 14 Noroeste 0 -- -- 84
2019-12-01 20:00:00 5 6 Noroeste 16 Norte 0 -- -- 86
2019-12-01 19:00:00 5.1 10 Noroeste 14 Norte 0 -- -- 84
2019-12-01 18:00:00 7 5 Norte 12 Norte 0 -- -- 76
2019-12-01 17:00:00 8.1 6 Nordeste 15 Este 0 -- -- 80
2019-12-01 16:00:00 7.7 7 Este 21 Este 0 -- -- 83
2019-12-01 15:00:00 8.1 12 Este 22 Nordeste 0 -- -- 84
2019-12-01 14:00:00 7.6 16 Nordeste 25 Este 0 -- -- 84
2019-12-01 13:00:00 6.8 14 Nordeste 25 Nordeste 0.2 -- -- 94
2019-12-01 12:00:00 6.3 14 Nordeste 21 Nordeste 0.2 -- -- 96
2019-12-01 11:00:00 5.7 10 Nordeste 16 Nordeste 0.6 -- -- 97
2019-12-01 10:00:00 5.4 9 Nordeste 13 Nordeste 0 -- -- 97
2019-12-01 09:00:00 5.3 5 Este 13 Sudeste 0 -- -- 97
2019-12-01 08:00:00 5.2 8 Sudeste 21 Sudeste 0 -- -- 97
2019-12-01 07:00:00 5.3 13 Sudeste 21 Sur 0.2 -- -- 96
2019-12-01 06:00:00 5.4 17 Sudeste 27 Sudeste 0.2 -- -- 96
2019-12-01 05:00:00 5.6 16 Sudeste 22 Sudeste 0.2 -- -- 96
2019-12-01 04:00:00 5.4 13 Sudeste 21 Sudeste 0 -- -- 95
2019-12-01 03:00:00 5.3 13 Sudeste 22 Sudeste 0 -- -- 95
2019-12-01 02:00:00 5.3 13 Sudeste 23 Sudeste 0 -- -- 93
2019-12-01 01:00:00 4.9 9 Sur 14 Sur 0 -- -- 93
2019-12-01 00:00:00 4.5 4 Sur 10 Sudeste 0 -- -- 91
2019-11-30 23:00:00 4.1 6 Este 13 Este 0 -- -- 88
2019-11-30 22:00:00 5.2 4 Sur 14 Este 0 -- -- 88
2019-11-30 21:00:00 5 4 Sur 11 Oeste 0 -- -- 89
2019-11-30 20:00:00 6.1 5 Oeste 15 Oeste 0 -- -- 84
2019-11-30 19:00:00 6.8 13 Oeste 34 Oeste 0 -- -- 79
2019-11-30 18:00:00 7.8 13 Oeste 24 Oeste 0 -- -- 71
2019-11-30 17:00:00 9.7 23 Oeste 38 Oeste 0 -- -- 61
2019-11-30 16:00:00 10.5 25 Oeste 44 Oeste 0 -- -- 58
2019-11-30 15:00:00 9.8 23 Oeste 38 Oeste 0 -- -- 61
2019-11-30 14:00:00 8.4 17 Oeste 41 Noroeste 0.2 -- -- 79
2019-11-30 13:00:00 9.3 28 Oeste 40 Oeste 0.2 -- -- 82
2019-11-30 12:00:00 10.2 23 Oeste 41 Oeste 0 -- -- 84
2019-11-30 11:00:00 9.7 27 Oeste 38 Oeste 0.8 -- -- 92
2019-11-30 10:00:00 11.5 23 Sur 34 Sur 0.2 -- -- 98
2019-11-30 09:00:00 10.7 18 Sur 28 Sur 1 -- -- 97
2019-11-30 08:00:00 10.6 12 Sur 28 Sur 0.2 -- -- 97
2019-11-30 07:00:00 10.5 17 Sur 26 Sur 0 -- -- 97
2019-11-30 06:00:00 10.4 18 Sudeste 31 Sur 0 -- -- 97
2019-11-30 05:00:00 10.2 21 Sur 36 Sur 0 -- -- 97
2019-11-30 04:00:00 9.3 15 Sur 25 Sur 0 -- -- 98
2019-11-30 03:00:00 8.4 3 Este 6 Sudeste 0 -- -- 97
2019-11-30 02:00:00 8.2 3 Este 9 Este 0.4 -- -- 96
2019-11-30 01:00:00 8.1 5 Este 10 Este 0.2 -- -- 96
2019-11-30 00:00:00 7.8 7 Este 13 Nordeste 0 -- -- 95
2019-11-29 23:00:00 7.8 11 Nordeste 15 Nordeste 0 -- -- 95
2019-11-29 22:00:00 8 7 Nordeste 11 Nordeste 0 -- -- 95
2019-11-29 21:00:00 7.7 4 Este 13 Nordeste 0 -- -- 95
2019-11-29 20:00:00 6.8 8 Nordeste 10 Nordeste 0 -- -- 94
2019-11-29 19:00:00 8 7 Nordeste 9 Nordeste 0 -- -- 91
2019-11-29 18:00:00 9.8 8 Este 12 Sudeste 0 -- -- 85
2019-11-29 17:00:00 11.4 9 Sudeste 19 Sudeste 0 -- -- 81
2019-11-29 16:00:00 11.7 8 Sudeste 15 Sudeste 0 -- -- 78
2019-11-29 15:00:00 13.4 5 Sudeste 13 Sur 0 -- -- 68
2019-11-29 14:00:00 12.8 5 Sudeste 10 Sudeste 0 -- -- 74
2019-11-29 13:00:00 12.1 0 Calma 9 Este 0 -- -- 80
2019-11-29 12:00:00 10.1 2 Oeste 6 Norte 0 -- -- 91
2019-11-29 11:00:00 6.7 4 Nordeste 8 Nordeste 0 -- -- 95
2019-11-29 10:00:00 4.7 5 Sur 10 Norte 0 -- -- 95
2019-11-29 09:00:00 4.9 7 Norte 10 Norte 0.2 -- -- 94
2019-11-29 08:00:00 6.2 4 Noroeste 13 Noroeste 0 -- -- 93
2019-11-29 07:00:00 6.6 8 Noroeste 10 Noroeste 0 -- -- 93
2019-11-29 06:00:00 7.8 7 Noroeste 18 Noroeste 0 -- -- 93
2019-11-29 05:00:00 8 11 Noroeste 17 Noroeste 0 -- -- 93
2019-11-29 04:00:00 8.1 11 Oeste 17 Noroeste 0 -- -- 92
2019-11-29 03:00:00 8.6 12 Oeste 18 Sudoeste 0 -- -- 90
2019-11-29 02:00:00 8.7 12 Sudoeste 23 Sudoeste 0 -- -- 89
2019-11-29 01:00:00 9.7 11 Oeste 18 Oeste 0 -- -- 90
2019-11-29 00:00:00 9.3 5 Sudoeste 12 Sudoeste 0 -- -- 96
2019-11-28 23:00:00 8.5 6 Sudeste 12 Este 0 -- -- 97
2019-11-28 22:00:00 8.5 7 Sudoeste 9 Sudoeste 0 -- -- 96
2019-11-28 21:00:00 9.3 6 Sur 18 Sudoeste 0 -- -- 95
2019-11-28 20:00:00 9.5 13 Sur 25 Sur 0.2 -- -- 95
2019-11-28 19:00:00 9.5 14 Sur 28 Sur 0.2 -- -- 94
2019-11-28 18:00:00 9.4 12 Sur 26 Sur 0.4 -- -- 93
2019-11-28 17:00:00 9.9 16 Sur 28 Sudoeste 0.4 -- -- 92
2019-11-28 16:00:00 10.5 18 Sudoeste 40 Sur 0.2 -- -- 87
2019-11-28 15:00:00 12 28 Sudoeste 42 Sudoeste 0 -- -- 75
2019-11-28 14:00:00 11.4 30 Sur 48 Sur 0 -- -- 85
2019-11-28 13:00:00 11.9 31 Sur 51 Sur 0 -- -- 82
2019-11-28 12:00:00 10.9 17 Sur 36 Sur 0 -- -- 89
2019-11-28 11:00:00 10.3 14 Sur 26 Sur 0 -- -- 95
2019-11-28 10:00:00 9.4 13 Sur 23 Sur 0 -- -- 96
2019-11-28 09:00:00 8.2 10 Sur 20 Sur 0 -- -- 96
2019-11-28 08:00:00 8 14 Sur 22 Sur 0 -- -- 95
2019-11-28 07:00:00 8.1 12 Sur 21 Sur 0 -- -- 94
2019-11-28 06:00:00 8.5 10 Sur 18 Sur 0 -- -- 94
2019-11-28 05:00:00 8.4 9 Sur 20 Sur 0 -- -- 94
2019-11-28 04:00:00 8 12 Sur 20 Sur 0 -- -- 94
2019-11-28 03:00:00 7.9 14 Sur 22 Sur 0 -- -- 94
2019-11-28 02:00:00 7.4 6 Sudoeste 20 Sur 0 -- -- 94
2019-11-28 01:00:00 7.6 10 Sur 18 Sudoeste 0 -- -- 94
2019-11-28 00:00:00 7.7 13 Sudoeste 29 Sudoeste 0 -- -- 93
2019-11-27 23:00:00 7.7 17 Sudoeste 26 Sudoeste 0 -- -- 93
2019-11-27 22:00:00 7.3 8 Sudoeste 22 Sudoeste 0 -- -- 93
2019-11-27 21:00:00 7.4 10 Sudoeste 19 Sudoeste 0 -- -- 91
2019-11-27 20:00:00 7.3 2 Sur 8 Sudoeste 0 -- -- 90
2019-11-27 19:00:00 7.4 7 Sudoeste 9 Sur 0 -- -- 88
2019-11-27 18:00:00 8.3 7 Sudoeste 10 Sudoeste 0 -- -- 86
2019-11-27 17:00:00 9 6 Sudoeste 17 Sudoeste 0 -- -- 84
2019-11-27 16:00:00 9.3 11 Sudoeste 33 Oeste 0 -- -- 80
2019-11-27 15:00:00 9.6 10 Oeste 34 Sudoeste 0.2 -- -- 91
2019-11-27 14:00:00 8.6 14 Sudoeste 31 Sudoeste 2.2 -- -- 93
2019-11-27 06:00:00 -- -- -- -- -- -- -- -- --
2019-11-27 05:00:00 -- -- -- -- -- -- -- -- --
2019-11-27 04:00:00 -- -- -- -- -- -- -- -- --
2019-11-27 03:00:00 6.4 13 Sur 22 Sur 0 -- -- 85
2019-11-27 02:00:00 4.8 8 Sudeste 13 Sudeste 0.2 -- -- 84
2019-11-27 01:00:00 5.3 8 Sudoeste 19 Sudoeste 0 -- -- 72
2019-11-27 00:00:00 6.8 16 Oeste 29 Sudoeste 0 -- -- 69
2019-11-26 23:00:00 7.1 14 Oeste 48 Sudoeste 0 -- -- 79
2019-11-26 22:00:00 8.8 29 Oeste 45 Sudoeste 0 -- -- 72
2019-11-26 21:00:00 8.9 18 Oeste 46 Oeste 0 -- -- 80
2019-11-26 20:00:00 9.9 19 Sudoeste 43 Sudoeste 0.4 -- -- 89
2019-11-26 19:00:00 11 29 Sudoeste 58 Sudoeste 0 -- -- 81
2019-11-26 18:00:00 12.3 35 Sudoeste 56 Sudoeste 0 -- -- 70
2019-11-26 17:00:00 13.4 30 Sudoeste 62 Sudoeste 0 -- -- 62
2019-11-26 16:00:00 14.2 39 Sudoeste 65 Sudoeste 0 -- -- 61
2019-11-26 15:00:00 14.1 25 Sudoeste 49 Sudoeste 0 -- -- 64
2019-11-26 14:00:00 13.7 25 Sudoeste 56 Sur 0 -- -- 65
2019-11-26 13:00:00 14.1 33 Sudoeste 52 Sur 0 -- -- 62
2019-11-26 12:00:00 14.3 30 Sudoeste 47 Sudoeste 0 -- -- 65
2019-11-26 11:00:00 12.5 22 Sur 37 Sur 0 -- -- 95
2019-11-26 10:00:00 10.4 13 Sur 24 Sur 0 -- -- 98
2019-11-26 09:00:00 9.4 15 Sudeste 22 Sur 0 -- -- 97
2019-11-26 08:00:00 9.2 17 Sur 28 Sudeste 0 -- -- 97
2019-11-26 07:00:00 8.9 14 Sur 27 Sur 0 -- -- 97
2019-11-26 06:00:00 8.8 13 Sur 22 Sur 0 -- -- 96
2019-11-26 05:00:00 8.5 7 Sudeste 13 Este 0 -- -- 97
2019-11-26 04:00:00 7.6 7 Nordeste 10 Este 0 -- -- 96
2019-11-26 03:00:00 6.9 7 Este 13 Este 0 -- -- 96
2019-11-26 02:00:00 6.4 6 Sudeste 11 Sudeste 0 -- -- 96
2019-11-26 01:00:00 5.7 5 Sudeste 8 Este 0 -- -- 95
2019-11-26 00:00:00 6.3 5 Este 9 Este 0 -- -- 94
2019-11-25 23:00:00 6.5 4 Este 7 Este 0 -- -- 94
2019-11-25 22:00:00 6 0 Calma 7 Sur 0 -- -- 91
2019-11-25 21:00:00 7.4 6 Sudeste 12 Sur 0 -- -- 88
2019-11-25 20:00:00 7.9 4 Sudoeste 8 Sudoeste 0 -- -- 88
2019-11-25 19:00:00 8 2 Sudoeste 5 Norte 0 -- -- 84
2019-11-25 18:00:00 9.5 3 Noroeste 7 Norte 0 -- -- 80
2019-11-25 17:00:00 10.8 5 Noroeste 19 Noroeste 0 -- -- 76
2019-11-25 16:00:00 11.3 13 Oeste 27 Oeste 0 -- -- 71
2019-11-25 15:00:00 12 17 Oeste 37 Oeste 0 -- -- 67
2019-11-25 14:00:00 12.4 19 Oeste 33 Oeste 0 -- -- 66
2019-11-25 13:00:00 12 19 Oeste 38 Oeste 0.2 -- -- 69
2019-11-25 12:00:00 11.2 9 Sur 15 Sur 0 -- -- 78
2019-11-25 11:00:00 10.4 5 Sur 27 Oeste 0 -- -- 82
2019-11-25 10:00:00 9.9 10 Oeste 26 Sudoeste 0 -- -- 88
2019-11-25 09:00:00 6.2 2 Este 8 Sudeste 0 -- -- 95
2019-11-25 08:00:00 6.5 4 Sudoeste 10 Este 0 -- -- 95
2019-11-25 07:00:00 7.6 6 Este 9 Este 0 -- -- 95
2019-11-25 06:00:00 7.8 4 Este 17 Oeste 0 -- -- 94
2019-11-25 05:00:00 8.3 15 Oeste 28 Sudoeste 0 -- -- 98
2019-11-25 04:00:00 5.1 6 Este 8 Nordeste 0 -- -- 97
2019-11-25 03:00:00 6.3 3 Nordeste 6 Norte 0 -- -- 97
2019-11-25 02:00:00 6.5 3 Sudeste 6 Sudeste 0 -- -- 97
2019-11-25 01:00:00 7.5 4 Sudoeste 14 Sur 0 -- -- 97
2019-11-25 00:00:00 7.6 8 Sur 17 Sur 0 -- -- 97
2019-11-24 23:00:00 7.4 11 Sur 17 Sur 0.2 -- -- 96
2019-11-24 22:00:00 7.2 9 Sur 27 Sur 0 -- -- 96
2019-11-24 21:00:00 6.8 14 Sur 22 Sur 0.2 -- -- 95
2019-11-24 20:00:00 6.7 12 Sur 26 Sur 0 -- -- 94
2019-11-24 19:00:00 6.7 14 Sur 22 Sur 0 -- -- 91
2019-11-24 18:00:00 7.1 13 Sur 25 Sudoeste 0 -- -- 88
2019-11-24 17:00:00 7.9 8 Sur 16 Sur 0 -- -- 86
2019-11-24 16:00:00 8 10 Sur 15 Sur 0 -- -- 84
2019-11-24 15:00:00 8.5 9 Sur 16 Sur 0 -- -- 74
2019-11-24 14:00:00 8.1 8 Sur 16 Sur 0 -- -- 76
2019-11-24 13:00:00 6.4 9 Sur 15 Sur 0 -- -- 81
2019-11-24 12:00:00 5.2 5 Sur 9 Sur 0 -- -- 82
2019-11-24 11:00:00 4.7 4 Sur 9 Sur 0 -- -- 86
2019-11-24 10:00:00 4.3 5 Sur 12 Sudoeste 0 -- -- 86
2019-11-24 09:00:00 3.3 7 Oeste 12 Sudoeste 0 -- -- 90
2019-11-24 08:00:00 2.4 8 Sudoeste 15 Noroeste 0 -- -- 91
2019-11-24 07:00:00 1.4 3 Sudoeste 12 Oeste 0 -- -- 90
2019-11-24 06:00:00 2.9 10 Oeste 16 Oeste 0 -- -- 90
2019-11-24 05:00:00 2.2 5 Oeste 15 Oeste 0 -- -- 89
2019-11-24 04:00:00 2.9 10 Oeste 23 Oeste 0 -- -- 89
2019-11-24 03:00:00 3.8 19 Oeste 31 Oeste 0 -- -- 88
2019-11-24 02:00:00 2.8 8 Sudoeste 29 Oeste 0 -- -- 87
2019-11-24 01:00:00 2.2 12 Sudoeste 16 Oeste 0 -- -- 91
2019-11-24 00:00:00 3.1 4 Oeste 12 Sudoeste 0 -- -- 88
2019-11-23 23:00:00 2.7 5 Sudoeste 14 Oeste 0 -- -- 90
2019-11-23 22:00:00 3.9 10 Oeste 31 Oeste 0 -- -- 88
2019-11-23 21:00:00 4.5 21 Oeste 36 Oeste 0 -- -- 88
2019-11-23 20:00:00 4.1 9 Oeste 27 Oeste 0 -- -- 86
2019-11-23 19:00:00 4.3 11 Oeste 31 Oeste 0 -- -- 85
2019-11-23 18:00:00 5.8 12 Oeste 33 Oeste 0 -- -- 80
2019-11-23 17:00:00 7.4 22 Oeste 49 Oeste 0 -- -- 74
2019-11-23 16:00:00 8.3 33 Oeste 48 Oeste 0 -- -- 69
2019-11-23 15:00:00 8.4 31 Oeste 52 Oeste 0 -- -- 68
2019-11-23 14:00:00 8.9 27 Oeste 54 Oeste 0 -- -- 67
2019-11-23 13:00:00 8.9 28 Oeste 47 Oeste 0 -- -- 66
2019-11-23 12:00:00 8.1 27 Oeste 44 Noroeste 0 -- -- 70
2019-11-23 11:00:00 6.9 24 Oeste 41 Oeste 0 -- -- 74
2019-11-23 10:00:00 5.5 23 Oeste 43 Oeste 0 -- -- 81
2019-11-23 09:00:00 3.3 11 Oeste 32 Oeste 0 -- -- 87
2019-11-23 08:00:00 3 10 Oeste 39 Oeste 0 -- -- 85
2019-11-23 07:00:00 3.6 20 Oeste 49 Oeste 0 -- -- 82
2019-11-23 06:00:00 3.9 33 Oeste 65 Oeste 0 -- -- 82
2019-11-23 05:00:00 3.7 30 Oeste 57 Oeste 0 -- -- 81
2019-11-23 04:00:00 4.3 33 Oeste 58 Oeste 0 -- -- 83
2019-11-23 03:00:00 4.2 26 Oeste 42 Oeste 0 -- -- 86
2019-11-23 02:00:00 4.4 27 Oeste 51 Sudoeste 0 -- -- 83
2019-11-23 01:00:00 5.3 25 Oeste 54 Oeste 0.4 -- -- 84
2019-11-23 00:00:00 6.2 32 Oeste 52 Oeste 0 -- -- 84
2019-11-22 23:00:00 5.4 19 Sudoeste 30 Sudoeste 0 -- -- 88
2019-11-22 22:00:00 5.6 19 Sudoeste 29 Sudoeste 0 -- -- 91
2019-11-22 21:00:00 5.6 18 Sur 28 Sur 0 -- -- 92
2019-11-22 20:00:00 6.2 21 Sudoeste 35 Sudoeste 0.4 -- -- 91
2019-11-22 19:00:00 6.7 19 Sudoeste 32 Sudoeste 0.2 -- -- 87
2019-11-22 18:00:00 7.6 15 Sudoeste 33 Oeste 0.2 -- -- 74
2019-11-22 17:00:00 9.9 21 Sudoeste 40 Oeste 0 -- -- 62
2019-11-22 16:00:00 11.5 25 Oeste 41 Oeste 0 -- -- 61
2019-11-22 15:00:00 11.9 14 Oeste 50 Sudoeste 0 -- -- 78
2019-11-22 14:00:00 11.5 33 Sudoeste 49 Sur 0 -- -- 87
2019-11-22 13:00:00 9.5 21 Sur 32 Sur 1.2 -- -- 98
2019-11-22 12:00:00 8.1 13 Sur 26 Sur 1 -- -- 97
2019-11-22 11:00:00 7.3 17 Sur 31 Sudeste 1 -- -- 97
2019-11-22 10:00:00 6.4 19 Sudeste 35 Sur 0.8 -- -- 97
2019-11-22 09:00:00 6.2 21 Sudeste 31 Sudeste 0.6 -- -- 97
2019-11-22 08:00:00 6.1 15 Sudeste 28 Sudeste 0.6 -- -- 96
2019-11-22 07:00:00 5.7 20 Sur 42 Sudeste 1 -- -- 96
2019-11-22 06:00:00 5.6 15 Sudeste 23 Sudeste 0.6 -- -- 96
2019-11-22 05:00:00 5.3 17 Sudeste 23 Sudeste 0.2 -- -- 96
2019-11-22 04:00:00 4.7 11 Sudeste 17 Sudeste 0 -- -- 96
2019-11-22 03:00:00 4.1 10 Sudeste 18 Sudeste 0 -- -- 95
2019-11-22 02:00:00 3.8 8 Sudeste 13 Sudeste 0 -- -- 93
2019-11-22 01:00:00 4.1 5 Sudeste 14 Sur 0 -- -- 92
2019-11-22 00:00:00 4 4 Sudeste 14 Sudeste 0 -- -- 92
2019-11-21 23:00:00 3.5 4 Sudoeste 8 Sudoeste 0 -- -- 92
2019-11-21 22:00:00 3.5 3 Sur 10 Sudeste 0 -- -- 90
2019-11-21 21:00:00 3.2 4 Este 10 Este 0 -- -- 89
2019-11-21 20:00:00 3 4 Este 6 Este 0 -- -- 88
2019-11-21 19:00:00 4 2 Sudeste -- -- 0 -- -- 84
2019-11-21 18:00:00 6 0 Calma 15 Noroeste 0 -- -- 77
2019-11-21 17:00:00 7.3 13 Noroeste 22 Noroeste 0 -- -- 71
2019-11-21 16:00:00 9.7 8 Sudoeste 21 Sudeste 0 -- -- 54
2019-11-21 15:00:00 9.9 10 Sur 17 Sudoeste 0 -- -- 56
2019-11-21 14:00:00 8.3 8 Oeste 16 Sudoeste 0 -- -- 63
2019-11-21 13:00:00 7.7 9 Sudoeste 24 Oeste 0 -- -- 66
2019-11-21 12:00:00 7.7 11 Sudoeste 24 Sudoeste 0 -- -- 67
2019-11-21 11:00:00 6 4 Sudoeste 11 Sur 0 -- -- 86
2019-11-21 10:00:00 4.3 7 Oeste 11 Noroeste 0 -- -- 95
2019-11-21 09:00:00 1.6 6 Oeste 9 Oeste 0 -- -- 96
2019-11-21 08:00:00 -- -- -- -- -- -- -- -- --
2019-11-21 07:00:00 -- -- -- -- -- -- -- -- --
2019-11-21 06:00:00 -- -- -- -- -- -- -- -- --
2019-11-21 05:00:00 -- -- -- -- -- -- -- -- --
2019-11-21 04:00:00 -- -- -- -- -- -- -- -- --
2019-11-21 03:00:00 -- -- -- -- -- -- -- -- --
2019-11-21 02:00:00 -- -- -- -- -- -- -- -- --
2019-11-21 01:00:00 -- -- -- -- -- -- -- -- --
2019-11-21 00:00:00 -- -- -- -- -- -- -- -- --
2019-11-20 23:00:00 -- -- -- -- -- -- -- -- --
2019-11-20 22:00:00 -- -- -- -- -- -- -- -- --
2019-11-20 21:00:00 -- -- -- -- -- -- -- -- --
2019-11-20 20:00:00 5.2 14 Sur 23 Sur 0 -- -- 94
2019-11-20 19:00:00 4.9 8 Sur 21 Sur 0 -- -- 94
2019-11-20 18:00:00 5.2 14 Sur 22 Sur 0 -- -- 91
2019-11-20 17:00:00 6.1 14 Sur 27 Sur 0 -- -- 92
2019-11-20 16:00:00 6.2 12 Sur 31 Sur 0 -- -- 95
2019-11-20 15:00:00 6.1 17 Sur 26 Sur 0 -- -- 96
2019-11-20 14:00:00 5.6 17 Sur 28 Sur 0.2 -- -- 97
2019-11-20 13:00:00 5.7 10 Sur 19 Sur 0.4 -- -- 97
2019-11-20 12:00:00 5.3 11 Sudeste 16 Sudeste 0.8 -- -- 98
2019-11-20 11:00:00 4.8 12 Sudeste 16 Sudeste 0.8 -- -- 98
2019-11-20 10:00:00 4.5 12 Sudeste 17 Sur 0.2 -- -- 98
2019-11-20 09:00:00 4.4 10 Sudeste 14 Sudeste 1 -- -- 97
2019-11-20 08:00:00 4.4 9 Sudeste 12 Sudeste 0.6 -- -- 97
2019-11-20 07:00:00 4.4 5 Este 10 Sudeste 0.8 -- -- 97
2019-11-20 06:00:00 4.2 5 Sudeste 9 Sudeste 0.2 -- -- 97
2019-11-20 05:00:00 4.1 6 Este 10 Este 0 -- -- 97
2019-11-20 04:00:00 3.9 4 Este 10 Este 0 -- -- 96
2019-11-20 03:00:00 3.7 5 Este 12 Este 0 -- -- 96
2019-11-20 02:00:00 3.6 8 Este 14 Nordeste 0 -- -- 95
2019-11-20 01:00:00 3.7 9 Este 13 Este 0.4 -- -- 94
2019-11-20 00:00:00 4.1 5 Este 10 Este 0.6 -- -- 91
2019-11-19 23:00:00 4.5 5 Este 11 Nordeste 0 -- -- 89
2019-11-19 22:00:00 4.5 8 Nordeste 10 Nordeste 0 -- -- 89
2019-11-19 21:00:00 4.5 4 Este 6 Este 0 -- -- 88
2019-11-19 20:00:00 4.7 3 Este 6 Nordeste 0 -- -- 85
2019-11-19 19:00:00 5 4 Nordeste 4 Nordeste 0 -- -- 83
2019-11-19 18:00:00 5.4 2 Sudeste 3 Sudeste 0 -- -- 79
2019-11-19 17:00:00 5.6 0 Calma 7 Sudoeste 0 -- -- 77
2019-11-19 16:00:00 5.5 4 Sudoeste 13 Sudoeste 0 -- -- 77
2019-11-19 15:00:00 5.6 8 Sudoeste 15 Sudeste 0 -- -- 76
2019-11-19 14:00:00 4.9 7 Sudeste 12 Sur 0 -- -- 81
2019-11-19 13:00:00 3.6 5 Este 11 Este 0 -- -- 88
2019-11-19 12:00:00 3.3 0 Calma 6 Este 0 -- -- 88
2019-11-19 11:00:00 1.5 0 Calma 5 Noroeste 0 -- -- 94
2019-11-19 10:00:00 -0.5 5 Noroeste 8 Noroeste 0 -- -- 96
2019-11-19 09:00:00 -2.6 5 Noroeste 7 Noroeste 0 -- -- 96
2019-11-19 08:00:00 -3.2 5 Norte 6 Norte 0 -- -- 94
2019-11-19 07:00:00 -2.8 4 Norte 5 Norte 0 -- -- 94
2019-11-19 06:00:00 -2.3 4 Norte 8 Noroeste 0 -- -- 94
2019-11-19 05:00:00 -2.1 6 Noroeste 9 Noroeste 0 -- -- 95
2019-11-19 04:00:00 -2.1 5 Noroeste 12 Noroeste 0 -- -- 94
2019-11-19 03:00:00 -2.1 6 Noroeste 8 Noroeste 0 -- -- 94
2019-11-19 02:00:00 -2.1 6 Norte 7 Norte 0 -- -- 94
2019-11-19 01:00:00 -1.2 4 Noroeste 9 Oeste 0 -- -- 94
2019-11-19 00:00:00 -0.9 3 Nordeste 8 Sudeste 0 -- -- 93
2019-11-18 23:00:00 -0.3 5 Norte 10 Noroeste 0 -- -- 91
2019-11-18 22:00:00 0.3 5 Noroeste 8 Norte 0 -- -- 89
2019-11-18 21:00:00 1.7 7 Norte 16 Norte 0 -- -- 87
2019-11-18 20:00:00 2.7 9 Noroeste 13 Noroeste 0 -- -- 82
2019-11-18 19:00:00 4.4 8 Norte 14 Noroeste 0 -- -- 77
2019-11-18 18:00:00 6.7 7 Oeste 18 Noroeste 0 -- -- 64
2019-11-18 17:00:00 8.8 14 Noroeste 30 Noroeste 0 -- -- 55
2019-11-18 16:00:00 9.2 17 Noroeste 32 Noroeste 0 -- -- 56
2019-11-18 15:00:00 9.9 21 Noroeste 28 Oeste 0 -- -- 57
2019-11-18 14:00:00 9.3 19 Noroeste 31 Oeste 0 -- -- 59
2019-11-18 13:00:00 8.6 18 Noroeste 33 Oeste 0 -- -- 66
2019-11-18 12:00:00 7.6 19 Noroeste 29 Noroeste 0 -- -- 72
2019-11-18 11:00:00 5.8 12 Noroeste 28 Oeste 0 -- -- 83
2019-11-18 10:00:00 3.6 18 Noroeste 25 Noroeste 0 -- -- 92
2019-11-18 09:00:00 1.5 10 Noroeste 16 Oeste 0 -- -- 95
2019-11-18 08:00:00 1.2 11 Oeste 20 Oeste 0 -- -- 94
2019-11-18 07:00:00 0.8 13 Noroeste 20 Noroeste 0 -- -- 95
2019-11-18 06:00:00 0.5 6 Oeste 14 Oeste 0 -- -- 93
2019-11-18 05:00:00 0.9 10 Oeste 14 Oeste 0 -- -- 94
2019-11-18 04:00:00 0.7 10 Noroeste 15 Oeste 0 -- -- 93
2019-11-18 03:00:00 1.6 8 Oeste 19 Oeste 0 -- -- 92
2019-11-18 02:00:00 2 9 Oeste 19 Oeste 0 -- -- 91
2019-11-18 01:00:00 2.7 13 Oeste 23 Oeste 0 -- -- 91
2019-11-18 00:00:00 3 14 Oeste 22 Oeste 0 -- -- 92
2019-11-17 23:00:00 2.6 6 Oeste 28 Oeste 0 -- -- 90
2019-11-17 22:00:00 3.5 17 Noroeste 29 Oeste 0 -- -- 88
2019-11-17 21:00:00 3.5 14 Oeste 32 Oeste 0.2 -- -- 87
2019-11-17 20:00:00 3.5 14 Oeste 23 Oeste 0 -- -- 86
2019-11-17 19:00:00 3.8 8 Sudoeste 23 Oeste 0 -- -- 81
2019-11-17 18:00:00 5.4 19 Oeste 36 Oeste 0 -- -- 77
2019-11-17 17:00:00 6.7 24 Oeste 41 Oeste 0 -- -- 73
2019-11-17 16:00:00 8 19 Oeste 36 Oeste 0.2 -- -- 70
2019-11-17 15:00:00 8.5 24 Oeste 43 Oeste 0 -- -- 73
2019-11-17 14:00:00 8.8 28 Oeste 42 Oeste 0.2 -- -- 78
2019-11-17 13:00:00 8.4 22 Oeste 35 Oeste 0 -- -- 82
2019-11-17 12:00:00 6.8 5 Sudoeste 12 Oeste 0 -- -- 90
2019-11-17 11:00:00 5.6 0 Calma 4 Norte 0 -- -- 96
2019-11-17 10:00:00 3.9 0 Calma 3 Nordeste 0 -- -- 96
2019-11-17 09:00:00 3.4 0 Calma 4 Noroeste 0 -- -- 96
2019-11-17 08:00:00 3 0 Calma 4 Sur 0 -- -- 95
2019-11-17 07:00:00 2.7 4 Sur 9 Sudeste 0 -- -- 95
2019-11-17 06:00:00 3 4 Sudeste 6 Sudeste 0 -- -- 94
2019-11-17 05:00:00 2.5 3 Sudoeste 6 Sudoeste 0 -- -- 93
2019-11-17 04:00:00 2.4 4 Sudoeste 14 Oeste 0 -- -- 93
2019-11-17 03:00:00 1.6 7 Sur 13 Sudoeste 0 -- -- 94
2019-11-17 02:00:00 1.5 5 Oeste 18 Oeste 0 -- -- 92
2019-11-17 01:00:00 1.6 10 Oeste 13 Oeste 0 -- -- 91
2019-11-17 00:00:00 2.4 7 Oeste 11 Oeste 0 -- -- 90
2019-11-16 23:00:00 2.8 9 Oeste 16 Oeste 0 -- -- 85
2019-11-16 22:00:00 2.8 8 Sudoeste 15 Sudoeste 0 -- -- 86
2019-11-16 21:00:00 2.5 8 Oeste 14 Oeste 0 -- -- 84
2019-11-16 20:00:00 3.2 10 Oeste 19 Oeste 0 -- -- 80
2019-11-16 19:00:00 3.3 15 Oeste 31 Oeste 0 -- -- 77
2019-11-16 18:00:00 3.6 21 Oeste 33 Oeste 0 -- -- 78
2019-11-16 17:00:00 4.5 17 Oeste 43 Oeste 0 -- -- 74
2019-11-16 16:00:00 6.3 31 Oeste 47 Oeste 0 -- -- 63
2019-11-16 15:00:00 5.9 24 Noroeste 40 Oeste 0.2 -- -- 71
2019-11-16 14:00:00 6.8 22 Oeste 39 Noroeste 0 -- -- 67
2019-11-16 13:00:00 5.4 26 Oeste 38 Noroeste 0.2 -- -- 71
2019-11-16 12:00:00 4.4 21 Oeste 42 Oeste 0.2 -- -- 78
2019-11-16 11:00:00 4.8 24 Oeste 37 Oeste 0.2 -- -- 81
2019-11-16 10:00:00 2.6 21 Oeste 33 Oeste 0.4 -- -- 92
2019-11-16 09:00:00 0 9 Oeste 17 Oeste 0 -- -- 95
2019-11-16 08:00:00 -0.4 9 Noroeste 19 Oeste 0 -- -- 94
2019-11-16 07:00:00 -0.6 9 Noroeste 15 Oeste 0 -- -- 94
2019-11-16 06:00:00 -0.2 11 Noroeste 22 Noroeste 0 -- -- 92
2019-11-16 05:00:00 0.3 14 Noroeste 23 Noroeste 0 -- -- 93
2019-11-16 04:00:00 0.3 15 Noroeste 26 Noroeste 0 -- -- 93
2019-11-16 03:00:00 -0.1 13 Noroeste 21 Oeste 0 -- -- 94
2019-11-16 02:00:00 0 11 Noroeste 26 Noroeste 0 -- -- 93
2019-11-16 01:00:00 0.2 8 Noroeste 22 Oeste 0 -- -- 93
2019-11-16 00:00:00 0.6 14 Oeste 19 Oeste 0 -- -- 93
2019-11-15 23:00:00 0.5 6 Noroeste 23 Oeste 0 -- -- 93
2019-11-15 22:00:00 1.1 15 Oeste 28 Oeste 0 -- -- 91
2019-11-15 21:00:00 0.8 10 Oeste 24 Noroeste 0 -- -- 91
2019-11-15 20:00:00 1.4 12 Oeste 24 Oeste 0 -- -- 89
2019-11-15 19:00:00 1.9 19 Oeste 32 Oeste 0 -- -- 87
2019-11-15 18:00:00 2.7 21 Oeste 42 Noroeste 0 -- -- 84
2019-11-15 17:00:00 3.2 18 Oeste 39 Oeste 0 -- -- 81
2019-11-15 16:00:00 4.7 28 Oeste 45 Oeste 0 -- -- 75
2019-11-15 15:00:00 4.2 30 Oeste 48 Oeste 0 -- -- 75
2019-11-15 14:00:00 4.9 30 Oeste 44 Oeste 0 -- -- 75
2019-11-15 13:00:00 4.6 28 Oeste 50 Noroeste 0.2 -- -- 78
2019-11-15 12:00:00 4.1 27 Oeste 40 Noroeste 1.8 -- -- 80
2019-11-15 11:00:00 2.5 22 Oeste 35 Oeste 2.2 -- -- 87
2019-11-15 10:00:00 1.7 18 Oeste 41 Oeste 2.8 -- -- 90
2019-11-15 09:00:00 0.9 18 Oeste 29 Oeste 0.4 -- -- 93
2019-11-15 08:00:00 0.5 15 Oeste 28 Oeste 0 -- -- 95
2019-11-15 07:00:00 0.5 14 Oeste 22 Oeste 0.2 -- -- 96
2019-11-15 06:00:00 0.3 10 Oeste 33 Noroeste 0 -- -- 96
2019-11-15 05:00:00 0.5 15 Oeste 27 Oeste 0.2 -- -- 95
2019-11-15 04:00:00 0.5 9 Sudoeste 31 Noroeste 0.2 -- -- 95
2019-11-15 03:00:00 0.7 20 Oeste 30 Noroeste 0.6 -- -- 96
2019-11-15 02:00:00 0.4 12 Noroeste 30 Oeste 0.6 -- -- 96
2019-11-15 01:00:00 0.6 16 Oeste 27 Oeste 0.2 -- -- 96
2019-11-15 00:00:00 0.4 12 Oeste 20 Oeste 0 -- -- 96
2019-11-14 23:00:00 0.3 0 Calma 6 Oeste 0 -- -- 95
2019-11-14 22:00:00 0.9 7 Oeste 31 Oeste 0.6 -- -- 93
2019-11-14 21:00:00 1.7 18 Oeste 28 Oeste 0.2 -- -- 93
2019-11-14 20:00:00 1.8 24 Oeste 42 Oeste 0.2 -- -- 92
2019-11-14 19:00:00 1.9 19 Oeste 48 Oeste 0.4 -- -- 92
2019-11-14 18:00:00 2.5 18 Oeste 39 Oeste 0 -- -- 87
2019-11-14 17:00:00 3.9 23 Oeste 39 Oeste 0 -- -- 83
2019-11-14 16:00:00 3.6 15 Oeste 25 Oeste 0.8 -- -- 96
2019-11-14 15:00:00 0.8 3 Oeste 11 Sudoeste 1.2 -- -- 94
2019-11-14 14:00:00 0.7 5 Sudoeste 49 Oeste 0.4 -- -- 91
2019-11-14 13:00:00 4 23 Oeste 36 Sudoeste 0.2 -- -- 83
2019-11-14 12:00:00 2.8 18 Sudoeste 36 Sudoeste 0.2 -- -- 79
2019-11-14 11:00:00 4.3 20 Sudoeste 32 Sudoeste 0 -- -- 68
2019-11-14 10:00:00 3.3 21 Oeste 33 Oeste 0 -- -- 75
2019-11-14 09:00:00 1.4 16 Oeste 34 Oeste 0 -- -- 86
2019-11-14 08:00:00 1.4 26 Oeste 39 Oeste 0 -- -- 87
2019-11-14 07:00:00 1.4 24 Oeste 39 Oeste 0 -- -- 83
2019-11-14 06:00:00 1.9 28 Oeste 52 Oeste 0 -- -- 80
2019-11-14 05:00:00 2.6 26 Oeste 45 Oeste 0 -- -- 85
2019-11-14 04:00:00 3.8 30 Oeste 49 Oeste 0 -- -- 82
2019-11-14 03:00:00 5 32 Oeste 56 Oeste 0 -- -- 85
2019-11-14 02:00:00 5.6 23 Oeste 49 Oeste 0 -- -- 85
2019-11-14 01:00:00 6.3 18 Oeste 31 Sudoeste 0 -- -- 86
2019-11-14 00:00:00 6.3 10 Sudoeste 30 Sudoeste 0 -- -- 77
2019-11-13 23:00:00 6.4 14 Sudoeste 32 Oeste 0 -- -- 76
2019-11-13 22:00:00 7 18 Sudoeste 34 Sudoeste 0 -- -- 74
2019-11-13 21:00:00 7.7 13 Sudoeste 32 Sudoeste 0 -- -- 74
2019-11-13 20:00:00 7.5 15 Sudoeste 32 Oeste 0 -- -- 72
2019-11-13 19:00:00 8 28 Oeste 42 Oeste 0 -- -- 71
2019-11-13 18:00:00 8.7 19 Oeste 33 Oeste 0 -- -- 70
2019-11-13 17:00:00 10.9 20 Oeste 49 Oeste 0 -- -- 65
2019-11-13 16:00:00 11.9 30 Oeste 45 Oeste 0 -- -- 61
2019-11-13 15:00:00 12.8 23 Oeste 37 Oeste 0 -- -- 58
2019-11-13 14:00:00 13.1 22 Oeste 37 Oeste 0 -- -- 57
2019-11-13 13:00:00 13.3 15 Oeste 25 Sudoeste 0.2 -- -- 58
2019-11-13 12:00:00 11.7 8 Oeste 15 Oeste 0 -- -- 66
2019-11-13 11:00:00 10.8 7 Oeste 16 Noroeste 0 -- -- 76
2019-11-13 10:00:00 9 5 Oeste 14 Oeste 0 -- -- 83
2019-11-13 09:00:00 6.5 9 Norte 14 Noroeste 0 -- -- 90
2019-11-13 08:00:00 5.8 4 Noroeste 15 Noroeste 0 -- -- 91
2019-11-13 07:00:00 5.7 8 Norte 11 Norte 0 -- -- 92
2019-11-13 06:00:00 7.6 4 Norte 24 Noroeste 0 -- -- 94
2019-11-13 05:00:00 8.6 12 Noroeste 32 Oeste 0 -- -- 96
2019-11-13 04:00:00 7 10 Oeste 15 Oeste 0 -- -- 97
2019-11-13 03:00:00 7.2 6 Oeste 9 Oeste 0.2 -- -- 96
2019-11-13 02:00:00 7.5 2 Sur 28 Noroeste 3.6 -- -- 95
2019-11-13 01:00:00 8.3 12 Sudoeste 19 Sudoeste 0.8 -- -- 97
2019-11-13 00:00:00 7.8 8 Sudoeste 16 Sudoeste 1 -- -- 96
2019-11-12 23:00:00 7.5 6 Sur 10 Sur 0 -- -- 96
2019-11-12 22:00:00 7.2 6 Sur 18 Sudoeste 0.2 -- -- 96
2019-11-12 21:00:00 7 11 Sudoeste 24 Sur 0.4 -- -- 96
2019-11-12 20:00:00 6.7 16 Sudoeste 30 Sur 2.4 -- -- 95
2019-11-12 19:00:00 7.1 10 Sudoeste 16 Sudoeste 2.6 -- -- 93
2019-11-12 18:00:00 7.5 5 Este 8 Sudeste 1.2 -- -- 91
2019-11-12 17:00:00 8.2 3 Este 8 Sur 0.2 -- -- 85
2019-11-12 16:00:00 8.8 5 Oeste 13 Sudoeste 0.2 -- -- 79
2019-11-12 15:00:00 8.8 5 Oeste 19 Oeste 0 -- -- 75
2019-11-12 14:00:00 8.7 12 Oeste 23 Oeste 0 -- -- 74
2019-11-12 13:00:00 7.6 13 Oeste 27 Oeste 0 -- -- 77
2019-11-12 12:00:00 6.8 19 Oeste 30 Oeste 0 -- -- 78
2019-11-12 11:00:00 6.7 22 Oeste 35 Noroeste 0 -- -- 78
2019-11-12 10:00:00 5.4 21 Oeste 33 Oeste 0 -- -- 83
2019-11-12 09:00:00 4.2 13 Oeste 29 Noroeste 0 -- -- 85
2019-11-12 08:00:00 4.4 18 Oeste 39 Noroeste 0 -- -- 82
2019-11-12 07:00:00 4.3 27 Noroeste 40 Oeste 0 -- -- 82
2019-11-12 06:00:00 4.2 14 Noroeste 27 Noroeste 0 -- -- 83
2019-11-12 05:00:00 4.4 18 Noroeste 31 Oeste 0 -- -- 79
2019-11-12 04:00:00 4.2 17 Oeste 27 Noroeste 0 -- -- 81
2019-11-12 03:00:00 3.6 14 Noroeste 24 Noroeste 0 -- -- 84
2019-11-12 02:00:00 3.2 13 Noroeste 21 Noroeste 0 -- -- 87
2019-11-12 01:00:00 2.1 8 Noroeste 11 Noroeste 0 -- -- 90
2019-11-12 00:00:00 0.9 0 Calma 13 Noroeste 0 -- -- 87
2019-11-11 23:00:00 1.7 4 Noroeste 12 Noroeste 0 -- -- 87
2019-11-11 22:00:00 2.3 3 Noroeste 13 Noroeste 0 -- -- 85
2019-11-11 21:00:00 3.1 7 Noroeste 12 Noroeste 0 -- -- 82
2019-11-11 20:00:00 4.3 6 Noroeste 15 Oeste 0 -- -- 77
2019-11-11 19:00:00 5.5 4 Norte 14 Norte 0 -- -- 68
2019-11-11 18:00:00 7.7 11 Norte 31 Norte 0 -- -- 60
2019-11-11 17:00:00 9.5 18 Noroeste 33 Noroeste 0 -- -- 53
2019-11-11 16:00:00 11.1 21 Norte 32 Norte 0 -- -- 49
2019-11-11 15:00:00 12 23 Norte 41 Norte 0 -- -- 47
2019-11-11 14:00:00 12.6 18 Norte 42 Noroeste 0 -- -- 47
2019-11-11 13:00:00 12.5 32 Noroeste 54 Noroeste 0 -- -- 48
2019-11-11 12:00:00 12.8 28 Noroeste 42 Noroeste 0 -- -- 57
2019-11-11 11:00:00 9.4 7 Noroeste 13 Noroeste 0 -- -- 93
2019-11-11 10:00:00 5.9 0 Calma 4 Este 0 -- -- 93
2019-11-11 09:00:00 4.8 2 Este 6 Nordeste 0 -- -- 93
2019-11-11 08:00:00 4.3 0 Calma 7 Este 0 -- -- 93
2019-11-11 07:00:00 4.2 4 Este 8 Este 0 -- -- 93
2019-11-11 06:00:00 3.9 2 Este 12 Sudeste 0 -- -- 94
2019-11-11 05:00:00 3.9 3 Sudeste 9 Sur 0 -- -- 94
2019-11-11 04:00:00 4.1 2 Sur 8 Sudeste 0 -- -- 94
2019-11-11 03:00:00 4.1 4 Oeste 13 Oeste 0 -- -- 94
2019-11-11 02:00:00 4.1 8 Noroeste 15 Noroeste 0 -- -- 93
2019-11-11 01:00:00 3.8 3 Noroeste 13 Oeste 0 -- -- 91
2019-11-11 00:00:00 3.4 6 Oeste 10 Oeste 0 -- -- 93
2019-11-10 23:00:00 3.4 6 Oeste 18 Oeste 0 -- -- 90
2019-11-10 22:00:00 4 12 Noroeste 17 Oeste 0 -- -- 88
2019-11-10 21:00:00 4.2 10 Oeste 27 Oeste 0 -- -- 88
2019-11-10 20:00:00 4.4 14 Oeste 21 Oeste 0.4 -- -- 86
2019-11-10 19:00:00 4.3 10 Oeste 18 Oeste 0 -- -- 87
2019-11-10 18:00:00 4.9 15 Oeste 28 Oeste 0 -- -- 83
2019-11-10 17:00:00 5.8 16 Oeste 29 Oeste 0.2 -- -- 82
2019-11-10 16:00:00 5.4 18 Oeste 33 Oeste 0 -- -- 86
2019-11-10 15:00:00 4.7 18 Oeste 32 Oeste 0 -- -- 89
2019-11-10 14:00:00 4.4 22 Oeste 38 Oeste 0.2 -- -- 88
2019-11-10 13:00:00 4.3 24 Oeste 43 Noroeste 0 -- -- 86
2019-11-10 12:00:00 5 29 Oeste 43 Oeste 0 -- -- 80
2019-11-10 11:00:00 5.3 23 Oeste 38 Oeste 0 -- -- 79
2019-11-10 10:00:00 4.5 20 Oeste 30 Oeste 0 -- -- 83
2019-11-10 09:00:00 3.9 19 Oeste 34 Oeste 0 -- -- 86
2019-11-10 08:00:00 3.1 16 Oeste 27 Oeste 0 -- -- 88
2019-11-10 07:00:00 3 15 Oeste 28 Oeste 0 -- -- 87
2019-11-10 06:00:00 2.9 15 Noroeste 28 Noroeste 0 -- -- 87
2019-11-10 05:00:00 2.8 21 Oeste 28 Oeste 0 -- -- 86
2019-11-10 04:00:00 3.2 22 Oeste 34 Noroeste 0 -- -- 82
2019-11-10 03:00:00 3.3 22 Oeste 34 Oeste 0 -- -- 80
2019-11-10 02:00:00 3.3 19 Oeste 36 Oeste 0 -- -- 82
2019-11-10 01:00:00 4 21 Oeste 35 Oeste 0 -- -- 79
2019-11-10 00:00:00 4.2 14 Oeste 42 Noroeste 0 -- -- 83
2019-11-09 23:00:00 5 24 Oeste 36 Noroeste 0 -- -- 79
2019-11-09 22:00:00 5.2 20 Oeste 32 Noroeste 0 -- -- 83
2019-11-09 21:00:00 6.2 23 Oeste 49 Oeste 0 -- -- 75
2019-11-09 20:00:00 7.1 37 Oeste 57 Oeste 0 -- -- 72
2019-11-09 19:00:00 8 21 Oeste 42 Oeste 0 -- -- 70
2019-11-09 18:00:00 9 15 Oeste 39 Oeste 0 -- -- 68
2019-11-09 17:00:00 10.1 23 Oeste 36 Oeste 0 -- -- 70
2019-11-09 16:00:00 11.5 27 Oeste 43 Oeste 0 -- -- 65
2019-11-09 15:00:00 11.4 25 Oeste 41 Oeste 0 -- -- 70
2019-11-09 14:00:00 11 21 Oeste 34 Oeste 0 -- -- 75
2019-11-09 13:00:00 8.3 5 Oeste 15 Sur 0 -- -- 82
2019-11-09 12:00:00 6.9 9 Sur 15 Sur 0 -- -- 87
2019-11-09 11:00:00 6 10 Sur 14 Sudoeste 0 -- -- 88
2019-11-09 10:00:00 4.8 3 Sur 9 Sur 0 -- -- 90
2019-11-09 09:00:00 4.3 3 Sur 8 Sur 0.2 -- -- 91
2019-11-09 08:00:00 4 2 Oeste 5 Sudoeste 0 -- -- 92
2019-11-09 07:00:00 3.7 4 Oeste 7 Oeste 0 -- -- 92
2019-11-09 06:00:00 2.8 5 Oeste 6 Oeste 0 -- -- 92
2019-11-09 05:00:00 2.1 7 Oeste 11 Oeste 0 -- -- 91
2019-11-09 04:00:00 3.1 10 Oeste 17 Oeste 0 -- -- 89
2019-11-09 03:00:00 2.9 10 Sudoeste 22 Oeste 0 -- -- 87
2019-11-09 02:00:00 2.9 8 Oeste 18 Oeste 0 -- -- 86
2019-11-09 01:00:00 3.6 13 Oeste 33 Oeste 0 -- -- 84
2019-11-09 00:00:00 3.5 15 Oeste 31 Oeste 0 -- -- 87
2019-11-08 23:00:00 2.8 15 Oeste 26 Oeste 0 -- -- 88
2019-11-08 22:00:00 3.6 18 Oeste 30 Oeste 0 -- -- 85
2019-11-08 21:00:00 3.9 20 Oeste 31 Oeste 0 -- -- 83
2019-11-08 20:00:00 4.1 14 Oeste 28 Oeste 0 -- -- 81
2019-11-08 19:00:00 4.7 14 Oeste 31 Oeste 0 -- -- 77
2019-11-08 18:00:00 6 23 Oeste 41 Oeste 0 -- -- 69
2019-11-08 17:00:00 7.9 30 Oeste 48 Oeste 0 -- -- 61
2019-11-08 16:00:00 8.5 33 Oeste 53 Oeste 0 -- -- 64
2019-11-08 15:00:00 9 33 Noroeste 52 Oeste 0 -- -- 58
2019-11-08 14:00:00 8.5 32 Noroeste 53 Noroeste 0 -- -- 62
2019-11-08 13:00:00 7.5 35 Oeste 54 Oeste 0 -- -- 67
2019-11-08 12:00:00 6.5 32 Oeste 47 Oeste 0 -- -- 73
2019-11-08 11:00:00 5.7 32 Oeste 50 Oeste 0 -- -- 74
2019-11-08 10:00:00 4.1 28 Oeste 39 Oeste 0 -- -- 80
2019-11-08 09:00:00 2.4 17 Oeste 30 Oeste 0 -- -- 89
2019-11-08 08:00:00 1.6 18 Oeste 29 Oeste 0 -- -- 90
2019-11-08 07:00:00 1.3 15 Oeste 34 Oeste 0 -- -- 89
2019-11-08 06:00:00 1.8 19 Oeste 36 Oeste 0 -- -- 88
2019-11-08 05:00:00 1.5 17 Oeste 33 Oeste 0 -- -- 89
2019-11-08 04:00:00 1.5 18 Oeste 30 Oeste 0 -- -- 88
2019-11-08 03:00:00 2 19 Oeste 36 Oeste 0 -- -- 85
2019-11-08 02:00:00 2.1 17 Oeste 31 Oeste 0 -- -- 84
2019-11-08 01:00:00 1.8 15 Oeste 33 Oeste 0 -- -- 85
2019-11-08 00:00:00 1.5 19 Oeste 36 Oeste 0 -- -- 88
2019-11-07 23:00:00 1.7 19 Oeste 31 Oeste 0 -- -- 86
2019-11-07 22:00:00 1.7 15 Oeste 26 Oeste 0 -- -- 88
2019-11-07 21:00:00 1.9 18 Oeste 34 Oeste 0 -- -- 89
2019-11-07 20:00:00 1.5 14 Oeste 31 Noroeste 0 -- -- 90
2019-11-07 19:00:00 3.2 19 Noroeste 32 Oeste 0 -- -- 81
2019-11-07 18:00:00 3.8 13 Oeste 36 Oeste 0 -- -- 74
2019-11-07 17:00:00 4.5 20 Oeste 33 Oeste 0 -- -- 71
2019-11-07 16:00:00 5.6 30 Oeste 56 Oeste 0 -- -- 72
2019-11-07 15:00:00 7.2 32 Oeste 48 Oeste 0 -- -- 65
2019-11-07 14:00:00 6.1 33 Oeste 60 Oeste 0 -- -- 69
2019-11-07 13:00:00 5.9 25 Oeste 46 Oeste 0 -- -- 79
2019-11-07 12:00:00 8.2 21 Oeste 54 Oeste 0 -- -- 62
2019-11-07 11:00:00 6.9 26 Oeste 45 Oeste 0 -- -- 71
2019-11-07 10:00:00 6 21 Oeste 28 Noroeste 0 -- -- 77
2019-11-07 09:00:00 4.7 9 Oeste 21 Oeste 0 -- -- 85
2019-11-07 08:00:00 4.7 13 Oeste 25 Oeste 0 -- -- 88
2019-11-07 07:00:00 4.5 14 Oeste 33 Oeste 0 -- -- 85
2019-11-07 06:00:00 5.4 14 Oeste 26 Oeste 0 -- -- 86
2019-11-07 05:00:00 5.6 14 Sudoeste 27 Sudoeste 0 -- -- 86
2019-11-07 04:00:00 6.1 15 Sudoeste 25 Sudoeste 0 -- -- 85
2019-11-07 03:00:00 7.3 18 Sudoeste 31 Sudoeste 0 -- -- 87
2019-11-07 02:00:00 8.7 13 Oeste 28 Noroeste 0 -- -- 91
2019-11-07 01:00:00 8.7 14 Sudoeste 23 Sudoeste 0.2 -- -- 95
2019-11-07 00:00:00 8.8 12 Sudoeste 22 Sur 0 -- -- 95
2019-11-06 23:00:00 8.8 14 Sudoeste 23 Sudoeste 0 -- -- 94
2019-11-06 22:00:00 8.6 11 Sudoeste 18 Sur 0.2 -- -- 94
2019-11-06 21:00:00 8.3 5 Sur 14 Sudoeste 0 -- -- 94
2019-11-06 20:00:00 8.6 8 Sur 15 Sur 0 -- -- 91
2019-11-06 19:00:00 9.3 3 Oeste 8 Oeste 0 -- -- 86
2019-11-06 18:00:00 9.9 5 Oeste 12 Sudoeste 0 -- -- 80
2019-11-06 17:00:00 10.4 10 Oeste 18 Oeste 0 -- -- 76
2019-11-06 16:00:00 10.9 9 Oeste 26 Oeste 0 -- -- 71
2019-11-06 15:00:00 10.7 13 Oeste 24 Sudoeste 0 -- -- 70
2019-11-06 14:00:00 10.6 13 Oeste 24 Oeste 0 -- -- 67
2019-11-06 13:00:00 9.5 14 Oeste 26 Oeste 0 -- -- 73
2019-11-06 12:00:00 9.1 11 Oeste 24 Oeste 0 -- -- 76
2019-11-06 11:00:00 8.4 10 Oeste 17 Oeste 0 -- -- 79
2019-11-06 10:00:00 6.6 5 Sudoeste 9 Sudoeste 0 -- -- 89
2019-11-06 09:00:00 5.7 4 Sudoeste 10 Sudoeste 0 -- -- 90
2019-11-06 08:00:00 4.6 3 Sudoeste 5 Oeste 0 -- -- 91
2019-11-06 07:00:00 5 0 Calma 21 Oeste 0 -- -- 89
2019-11-06 06:00:00 4.4 7 Oeste 15 Oeste 0 -- -- 89
2019-11-06 05:00:00 4 10 Oeste 15 Oeste 0 -- -- 89
2019-11-06 04:00:00 4.7 8 Oeste 20 Oeste 0 -- -- 87
2019-11-06 03:00:00 5.2 9 Oeste 23 Oeste 0 -- -- 87
2019-11-06 02:00:00 5.9 14 Oeste 26 Oeste 0 -- -- 84
2019-11-06 01:00:00 5.4 14 Oeste 25 Oeste 0 -- -- 86
2019-11-06 00:00:00 5.7 13 Oeste 30 Noroeste 0 -- -- 84